Terminal Aerodrome Forecast
Issued by NWS Atlanta, GA

Home | Current Version | Previous Version | Text Only | Print | Product List | Glossary On
Versions: 1 2 3 4 5 6 7 8 9 10 11 12 13 14 15 16 17 18 19 20 21 22 23 24 25 26 27 28 29 30 31 32 33 34 35 36 37 38 39 40 41 42 43 44
000
FTAK31 PAJN 300900 AAA
TAFAHN
TAF AMD
PAHN 300926Z 3009/0106 09011G19KT P6SM VCSH OVC010
     FM301000 09008G18KT P6SM -SHRA OVC015
     FM301800 12008KT P6SM -SHRA BKN015 OVC025
     FM010100 13007KT P6SM SCT025 BKN050 OVC070
      AMD LTD TO CLD VIS AND WIND=

USA.gov is the U.S. government's official web portal to all federal, state and local government web resources and services.